Time;durP1;ratioP1;P1;durP2;ratioP2;P2;SDS_P1;SDS_P2;PMS_P1;PMS_P2;Temp;Humidity;BMP_temperature;BMP_pressure;BME280_temperature;BME280_humidity;BME280_pressure;Samples;Min_cycle;Max_cycle;Signal;HPM_P1;HPM_P2
2022/01/19 05:04:55;;;;;;;18.70;9.50;;;;;;;1.06;66.03;102204.19;5583366;32;34140;-57
2022/01/19 05:08:21;;;;;;;22.05;9.85;;;;;;;1.04;64.84;102198.28;5583056;31;33664;-57
2022/01/19 05:14:46;;;;;;;19.37;9.85;;;;;;;0.99;64.97;102184.75;5583387;31;33424;-57
2022/01/19 05:17:48;;;;;;;19.65;9.95;;;;;;;1.08;64.57;102191.66;5582964;31;33150;-57
2022/01/19 05:20:51;;;;;;;23.52;9.88;;;;;;;1.10;64.51;102184.41;5583264;31;33424;-57
2022/01/19 05:23:54;;;;;;;25.52;10.70;;;;;;;1.05;64.46;102186.72;5583275;31;33222;-57
2022/01/19 05:26:56;;;;;;;21.15;9.73;;;;;;;0.92;66.98;102182.81;5583638;31;33522;-57
2022/01/19 05:29:59;;;;;;;25.42;11.50;;;;;;;0.94;66.41;102196.66;5582960;31;33722;-57
2022/01/19 05:33:02;;;;;;;23.38;10.35;;;;;;;0.84;66.14;102195.22;5583569;31;34238;-57
2022/01/19 05:36:05;;;;;;;23.27;10.63;;;;;;;1.04;66.21;102179.78;5583323;31;33332;-58
2022/01/19 05:39:07;;;;;;;21.58;10.18;;;;;;;1.22;65.24;102190.91;5582388;31;33515;-57
2022/01/19 05:42:15;;;;;;;25.92;12.35;;;;;;;1.23;63.96;102192.56;5582969;31;34217;-57
2022/01/19 05:45:18;;;;;;;24.50;10.80;;;;;;;1.31;63.37;102181.94;5569603;31;33265;-57
2022/01/19 05:48:21;;;;;;;22.80;10.57;;;;;;;1.22;63.33;102193.56;5571577;31;33160;-57
2022/01/19 05:51:24;;;;;;;24.73;11.20;;;;;;;1.15;63.46;102187.31;5570932;31;34351;-57
2022/01/19 05:54:27;;;;;;;22.65;10.98;;;;;;;1.08;64.40;102189.00;5580844;31;33294;-57
2022/01/19 05:57:29;;;;;;;24.55;11.38;;;;;;;0.90;64.27;102190.09;5580984;32;33678;-57
2022/01/19 06:00:31;;;;;;;19.70;10.07;;;;;;;1.01;63.50;102183.59;5580608;31;34033;-58
2022/01/19 06:03:34;;;;;;;24.85;10.70;;;;;;;1.05;64.26;102184.06;5581290;32;34270;-57
2022/01/19 06:06:37;;;;;;;28.85;12.13;;;;;;;0.89;65.36;102195.53;5580105;31;33253;-56
2022/01/19 06:12:45;;;;;;;24.48;11.18;;;;;;;0.91;63.83;102196.19;5568090;31;34175;-57
2022/01/19 06:15:49;;;;;;;21.90;10.85;;;;;;;1.11;62.73;102191.31;5569824;32;34701;-57
2022/01/19 06:18:51;;;;;;;24.55;12.43;;;;;;;1.03;62.56;102196.66;5568856;32;34597;-57
2022/01/19 06:21:54;;;;;;;24.08;11.20;;;;;;;0.69;63.70;102197.75;5556591;31;33041;-57
2022/01/19 06:24:57;;;;;;;27.17;12.25;;;;;;;0.73;66.57;102201.72;5567425;32;33204;-58
2022/01/19 06:28:02;;;;;;;41.47;12.18;;;;;;;0.70;64.18;102191.50;5568993;31;33508;-57
2022/01/19 06:31:06;;;;;;;22.45;10.98;;;;;;;0.77;70.51;102199.56;5566985;32;33581;-57
2022/01/19 06:34:09;;;;;;;19.35;10.73;;;;;;;0.91;65.68;102202.28;5567723;31;33218;-57
2022/01/19 06:37:13;;;;;;;25.25;11.70;;;;;;;0.91;65.64;102193.56;5568725;31;33487;-57
2022/01/19 06:40:17;;;;;;;25.23;11.98;;;;;;;1.07;67.02;102197.94;5567478;31;32123;-58
2022/01/19 06:43:19;;;;;;;23.45;11.55;;;;;;;0.98;64.14;102191.88;5567362;32;33709;-58
2022/01/19 06:46:22;;;;;;;23.48;10.98;;;;;;;0.92;63.98;102198.66;5569026;31;33342;-57
2022/01/19 06:49:24;;;;;;;23.87;11.68;;;;;;;1.02;63.12;102198.44;5569381;32;34530;-57
2022/01/19 06:52:27;;;;;;;25.98;11.38;;;;;;;1.09;63.28;102194.12;5568138;32;33397;-57
2022/01/19 06:55:29;;;;;;;24.08;11.65;;;;;;;1.09;63.18;102193.28;5567849;31;33575;-57
2022/01/19 06:58:33;;;;;;;34.17;12.50;;;;;;;0.99;62.82;102190.03;5566677;31;33594;-57
2022/01/19 07:01:36;;;;;;;20.98;12.35;;;;;;;1.00;63.32;102189.06;5567755;31;34380;-57
2022/01/19 07:04:46;;;;;;;29.50;13.55;;;;;;;1.00;71.39;102183.78;5568052;32;33518;-57
2022/01/19 07:07:52;;;;;;;25.67;12.43;;;;;;;1.18;62.75;102171.94;5567187;31;33808;-57
2022/01/19 07:10:55;;;;;;;26.50;12.90;;;;;;;1.20;62.58;102174.44;5568187;32;33804;-57
2022/01/19 07:13:57;;;;;;;27.70;12.32;;;;;;;1.15;67.00;102177.56;5567350;31;33450;-57
2022/01/19 07:17:00;;;;;;;29.20;14.40;;;;;;;1.27;62.84;102178.00;5568427;32;33539;-57
2022/01/19 07:20:04;;;;;;;27.90;13.05;;;;;;;1.13;63.20;102176.94;5567877;31;33313;-57
2022/01/19 07:23:06;;;;;;;30.60;14.87;;;;;;;1.30;62.28;102174.22;5552431;32;32305;-57
2022/01/19 07:26:09;;;;;;;27.45;13.90;;;;;;;1.16;62.98;102162.56;5567436;32;33416;-57
2022/01/19 07:29:13;;;;;;;29.75;13.93;;;;;;;1.22;62.90;102164.50;5567663;31;33045;-57
2022/01/19 07:32:17;;;;;;;26.10;12.88;;;;;;;1.22;63.23;102159.22;5567349;31;34253;-57
2022/01/19 07:35:20;;;;;;;30.52;13.77;;;;;;;1.29;62.50;102160.19;5567571;32;33936;-57
2022/01/19 07:38:23;;;;;;;23.60;13.73;;;;;;;1.30;62.49;102145.16;5567411;31;33094;-57
2022/01/19 07:41:25;;;;;;;37.47;12.68;;;;;;;1.34;67.09;102149.06;5567277;32;34304;-58
2022/01/19 07:44:29;;;;;;;26.65;12.93;;;;;;;1.52;67.65;102140.84;5566622;31;34237;-57
2022/01/19 07:47:36;;;;;;;32.42;13.50;;;;;;;1.36;72.55;102132.06;5567316;31;34335;-57
2022/01/19 07:50:39;;;;;;;28.00;14.48;;;;;;;1.38;63.47;102134.50;5567383;31;34285;-57
2022/01/19 07:53:42;;;;;;;32.45;14.48;;;;;;;1.41;64.42;102134.97;5566967;32;33624;-57
2022/01/19 07:56:46;;;;;;;27.75;13.77;;;;;;;1.64;62.41;102131.50;5567148;31;33231;-57
2022/01/19 07:59:48;;;;;;;27.87;14.10;;;;;;;1.70;62.15;102137.91;5566638;31;34479;-57
2022/01/19 08:02:51;;;;;;;29.90;14.43;;;;;;;1.80;62.20;102139.28;5567125;32;34051;-58
2022/01/19 08:05:57;;;;;;;30.60;14.50;;;;;;;1.76;62.40;102139.84;5567044;31;34283;-58
2022/01/19 08:09:00;;;;;;;34.95;15.05;;;;;;;1.66;62.62;102132.16;5566655;32;33631;-58
2022/01/19 08:12:03;;;;;;;27.95;14.50;;;;;;;1.47;63.56;102133.47;5566526;31;34242;-57
2022/01/19 08:15:06;;;;;;;30.23;14.98;;;;;;;1.92;61.75;102129.13;5558249;31;34372;-58
2022/01/19 08:18:09;;;;;;;27.20;15.20;;;;;;;1.84;62.08;102123.88;5547992;32;34244;-58
2022/01/19 08:21:11;;;;;;;29.98;14.73;;;;;;;1.98;61.66;102123.09;5562128;32;33545;-58
2022/01/19 08:24:15;;;;;;;26.05;14.18;;;;;;;1.97;61.66;102120.63;5568450;31;33385;-58
2022/01/19 08:27:17;;;;;;;29.30;15.60;;;;;;;1.96;71.66;102122.47;5568584;32;33777;-58
2022/01/19 08:30:22;;;;;;;33.05;14.25;;;;;;;1.95;62.56;102115.50;5567341;31;33535;-57
2022/01/19 08:33:25;;;;;;;29.52;14.38;;;;;;;2.28;60.77;102113.34;5564022;31;35817;-58
2022/01/19 08:36:28;;;;;;;27.73;15.05;;;;;;;2.12;63.45;102127.59;5566750;32;33676;-58
2022/01/19 08:39:32;;;;;;;29.55;15.18;;;;;;;2.29;61.39;102119.47;5567896;31;34530;-58
2022/01/19 08:42:36;;;;;;;27.33;14.75;;;;;;;2.32;61.79;102119.13;5566342;32;33353;-58
2022/01/19 08:45:38;;;;;;;34.05;13.90;;;;;;;2.64;60.54;102117.91;5567965;31;34420;-57
2022/01/19 08:48:41;;;;;;;28.70;15.30;;;;;;;2.65;60.61;102116.91;5568096;32;34404;-58
2022/01/19 08:51:45;;;;;;;31.05;14.65;;;;;;;2.54;61.07;102120.00;5567766;32;33190;-58
2022/01/19 08:54:48;;;;;;;33.40;15.60;;;;;;;2.51;61.44;102113.25;5567901;31;33896;-58
2022/01/19 08:57:51;;;;;;;27.95;15.27;;;;;;;2.62;61.29;102105.88;5567143;32;33468;-58
2022/01/19 09:00:53;;;;;;;32.05;16.02;;;;;;;2.72;60.66;102093.97;5567130;32;33305;-58
2022/01/19 09:03:56;;;;;;;32.75;15.07;;;;;;;2.74;60.45;102101.72;5568175;32;33232;-58
2022/01/19 09:06:59;;;;;;;28.92;15.35;;;;;;;2.76;61.19;102103.19;5568366;32;33606;-57
2022/01/19 09:10:03;;;;;;;32.53;15.75;;;;;;;3.24;61.49;102097.34;5567600;32;34419;-58
2022/01/19 09:13:07;;;;;;;31.55;15.02;;;;;;;3.33;59.39;102093.56;5567591;32;33608;-58
2022/01/19 09:16:10;;;;;;;36.55;15.82;;;;;;;3.30;60.08;102096.59;5566924;32;33606;-58
2022/01/19 09:19:12;;;;;;;31.42;15.32;;;;;;;3.28;59.98;102101.28;5567094;32;34295;-58
2022/01/19 09:22:14;;;;;;;31.85;15.43;;;;;;;3.33;60.22;102108.66;5548028;32;34205;-58
2022/01/19 09:25:17;;;;;;;24.35;13.48;;;;;;;3.47;59.74;102095.31;5547167;32;33729;-58
2022/01/19 09:28:20;;;;;;;27.00;13.90;;;;;;;3.33;59.00;102092.75;5548016;32;33666;-58
2022/01/19 09:31:23;;;;;;;30.25;16.05;;;;;;;3.47;59.86;102097.16;5561769;32;34228;-58
2022/01/19 09:34:26;;;;;;;31.25;17.40;;;;;;;3.63;64.14;102104.84;5566900;32;33656;-58
2022/01/19 09:37:28;;;;;;;26.40;14.55;;;;;;;3.60;59.32;102091.16;5564507;32;33714;-58
2022/01/19 09:40:51;;;;;;;25.62;13.43;;;;;;;3.81;58.13;102083.19;5561977;32;33063;-58
2022/01/19 09:43:57;;;;;;;26.35;14.30;;;;;;;3.87;57.46;102084.22;5565355;32;33574;-58
2022/01/19 09:46:59;;;;;;;28.70;14.87;;;;;;;3.92;56.96;102079.16;5568689;32;33300;-58
2022/01/19 09:50:02;;;;;;;30.60;15.57;;;;;;;3.83;58.06;102065.22;5560648;32;33811;-58
2022/01/19 09:53:08;;;;;;;29.95;15.38;;;;;;;3.83;62.26;102061.75;5563636;32;33341;-58
2022/01/19 09:56:10;;;;;;;24.80;15.57;;;;;;;4.33;67.84;102062.44;5568681;32;35349;-57
2022/01/19 09:59:15;;;;;;;28.75;17.23;;;;;;;4.26;57.19;102050.97;5567984;32;33633;-58
2022/01/19 10:02:18;;;;;;;34.65;20.50;;;;;;;4.38;58.07;102042.25;5565696;32;34367;-57
2022/01/19 10:05:21;;;;;;;37.58;17.35;;;;;;;4.40;58.41;102036.72;5567492;32;33804;-58
2022/01/19 10:08:32;;;;;;;44.85;19.50;;;;;;;4.39;58.55;102027.13;5569634;32;33841;-58
2022/01/19 10:18:18;;;;;;;37.50;20.92;;;;;;;4.51;64.21;102001.66;5568944;32;34355;-58
2022/01/19 10:21:20;;;;;;;43.30;24.37;;;;;;;4.72;69.23;102008.63;5569259;32;33694;-59
2022/01/19 10:24:42;;;;;;;49.80;24.27;;;;;;;4.63;58.73;101989.41;5567135;32;33704;-58
2022/01/19 10:27:47;;;;;;;49.38;25.33;;;;;;;4.92;59.08;101982.09;5565856;32;34345;-58
2022/01/19 10:30:49;;;;;;;41.65;24.02;;;;;;;4.81;58.21;101977.38;5568285;32;33704;-58
2022/01/19 10:34:16;;;;;;;46.85;25.15;;;;;;;4.83;58.10;101967.38;5560293;32;34233;-58
2022/01/19 10:37:27;;;;;;;43.78;23.83;;;;;;;4.76;57.67;101967.34;5567492;32;33169;-55
2022/01/19 10:40:30;;;;;;;41.47;20.85;;;;;;;4.80;59.48;101952.66;5556886;32;33229;-56
2022/01/19 10:43:41;;;;;;;38.53;22.42;;;;;;;5.23;67.43;101948.75;5569009;32;33728;-56
2022/01/19 10:46:50;;;;;;;37.08;21.85;;;;;;;5.07;57.74;101942.03;5566456;32;34284;-56
2022/01/19 10:49:57;;;;;;;32.20;20.12;;;;;;;5.11;65.77;101922.81;5568981;32;33743;-57
2022/01/19 10:53:02;;;;;;;34.78;20.67;;;;;;;4.92;57.28;101916.47;5566781;32;33968;-56
2022/01/19 10:56:05;;;;;;;37.08;20.85;;;;;;;4.89;58.56;101914.22;5566826;32;33811;-56
2022/01/19 10:59:11;;;;;;;35.67;19.12;;;;;;;4.92;58.22;101902.38;5566453;32;34261;-56
2022/01/19 11:02:14;;;;;;;44.40;21.65;;;;;;;5.16;72.56;101899.06;5561930;32;33631;-56
2022/01/19 11:05:17;;;;;;;36.45;20.62;;;;;;;5.47;57.42;101894.94;5565500;32;33824;-57
2022/01/19 11:08:22;;;;;;;36.15;20.27;;;;;;;5.33;66.06;101896.81;5566416;32;33677;-56
2022/01/19 11:11:25;;;;;;;29.37;17.77;;;;;;;5.32;57.52;101891.69;5556666;32;33785;-56
2022/01/19 11:14:29;;;;;;;38.72;19.58;;;;;;;5.40;70.81;101888.81;5558109;32;33287;-56
2022/01/19 11:17:31;;;;;;;33.90;18.52;;;;;;;5.84;58.37;101871.25;5563716;32;34387;-56
2022/01/19 11:20:42;;;;;;;30.65;17.85;;;;;;;5.81;63.18;101875.16;5553220;32;34372;-56
2022/01/19 11:24:11;;;;;;;30.88;16.02;;;;;;;5.73;57.86;101866.59;5548691;32;33612;-56
2022/01/19 11:27:15;;;;;;;29.37;14.32;;;;;;;5.63;57.20;101851.91;5553577;32;34347;-56
2022/01/19 11:30:17;;;;;;;25.45;14.55;;;;;;;5.70;56.31;101845.75;5551575;32;33732;-56
2022/01/19 11:33:25;;;;;;;30.80;15.25;;;;;;;5.67;55.77;101846.16;5567522;32;33755;-56
2022/01/19 11:36:35;;;;;;;32.25;13.13;;;;;;;5.65;58.68;101849.84;5567678;32;33640;-56
2022/01/19 11:40:02;;;;;;;26.48;12.55;;;;;;;5.72;55.59;101833.03;5568168;32;33757;-56
2022/01/19 11:43:21;;;;;;;25.17;11.35;;;;;;;5.81;56.06;101818.47;5563882;32;34238;-56
2022/01/19 11:46:40;;;;;;;22.95;10.65;;;;;;;5.92;55.06;101816.97;5568374;32;33785;-56
2022/01/19 11:50:06;;;;;;;23.85;10.63;;;;;;;5.89;55.36;101815.53;5567446;32;33159;-56
2022/01/19 11:53:10;;;;;;;;;;;;;;;5.92;54.41;101806.31;5564790;32;33711;-56
2022/01/19 11:56:13;;;;;;;23.00;9.60;;;;;;;5.89;53.57;101812.87;5560323;32;34562;-56
2022/01/19 11:59:15;;;;;;;21.58;9.13;;;;;;;5.89;52.69;101796.91;5565258;32;34446;-56
2022/01/19 12:02:20;;;;;;;17.73;8.60;;;;;;;5.75;53.33;101796.16;5559103;32;33777;-58
2022/01/19 12:05:43;;;;;;;18.27;8.68;;;;;;;5.96;54.92;101788.91;5564817;32;34015;-58
2022/01/19 12:08:55;;;;;;;20.42;9.68;;;;;;;6.02;54.44;101769.41;5567585;32;33703;-58
2022/01/19 12:12:14;;;;;;;19.50;9.02;;;;;;;6.13;53.64;101774.06;5566932;32;33183;-58
2022/01/19 12:15:55;;;;;;;16.77;9.68;;;;;;;6.29;57.02;101770.03;5567873;32;33813;-58
2022/01/19 12:19:01;;;;;;;22.23;11.40;;;;;;;6.25;55.47;101760.84;5564938;32;33835;-58
2022/01/19 12:22:27;;;;;;;24.50;11.57;;;;;;;6.13;52.11;101760.75;5556126;32;33215;-58
2022/01/19 12:25:53;;;;;;;19.20;10.40;;;;;;;6.10;55.49;101764.66;5559637;32;33166;-58
2022/01/19 12:28:55;;;;;;;21.73;11.12;;;;;;;6.28;54.57;101739.94;5557296;32;33691;-58
2022/01/19 12:32:00;;;;;;;23.85;11.25;;;;;;;6.34;52.85;101747.03;5567478;32;33337;-58
2022/01/19 12:35:10;;;;;;;25.42;11.38;;;;;;;6.50;54.55;101751.00;5563400;32;33336;-58
2022/01/19 12:38:23;;;;;;;44.83;20.25;;;;;;;6.67;53.72;101745.13;5565922;32;33717;-57
2022/01/19 12:41:25;;;;;;;36.97;21.33;;;;;;;6.66;59.66;101733.66;5564498;32;34789;-58
2022/01/19 12:44:57;;;;;;;29.27;13.48;;;;;;;6.76;55.18;101730.47;5566767;32;33492;-58
2022/01/19 12:48:00;;;;;;;34.22;17.08;;;;;;;6.94;54.64;101716.31;5565192;32;34300;-58
2022/01/19 12:51:34;;;;;;;30.58;14.48;;;;;;;6.83;52.22;101721.34;5561703;32;34377;-58
2022/01/19 12:54:36;;;;;;;20.65;9.68;;;;;;;6.83;54.12;101717.87;5555578;32;33202;-56
2022/01/19 12:57:39;;;;;;;26.20;13.82;;;;;;;6.73;52.49;101698.94;5566231;32;32465;-56
2022/01/19 13:00:45;;;;;;;18.67;8.90;;;;;;;6.63;52.36;101706.62;5564134;32;33645;-56
2022/01/19 13:03:48;;;;;;;22.60;9.60;;;;;;;6.56;52.46;101704.84;5556751;32;33711;-56
2022/01/19 13:06:55;;;;;;;14.85;8.35;;;;;;;6.49;52.88;101684.63;5566490;32;33756;-56
2022/01/19 13:16:34;;;;;;;17.87;9.73;;;;;;;6.54;57.12;101688.25;5557765;32;34332;-56
2022/01/19 13:19:42;;;;;;;22.37;11.35;;;;;;;6.61;54.73;101663.38;5558161;32;33763;-56
2022/01/19 13:22:44;;;;;;;26.05;11.68;;;;;;;6.68;54.74;101672.12;5563867;32;34405;-57
2022/01/19 13:26:01;;;;;;;17.87;10.15;;;;;;;6.82;53.59;101668.25;5566293;32;34376;-57
2022/01/19 13:29:47;;;;;;;23.33;10.98;;;;;;;6.87;53.11;101665.75;5558245;32;33816;-57
2022/01/19 13:32:49;;;;;;;20.10;9.15;;;;;;;6.74;53.65;101664.06;5521104;32;33791;-56
2022/01/19 13:36:01;;;;;;;18.98;8.80;;;;;;;7.01;66.90;101653.06;5550123;32;34361;-56
2022/01/19 13:39:05;;;;;;;24.00;11.30;;;;;;;7.13;53.91;101653.13;5550028;32;34476;-57
2022/01/19 13:42:07;;;;;;;18.33;9.15;;;;;;;7.11;52.84;101644.53;5558325;32;34329;-56
2022/01/19 13:45:18;;;;;;;20.52;8.40;;;;;;;6.90;53.39;101633.31;5569604;31;33731;-56
2022/01/19 13:51:30;;;;;;;18.17;11.48;;;;;;;7.08;52.21;101632.44;5569005;32;34339;-57
2022/01/19 13:54:38;;;;;;;20.90;11.20;;;;;;;7.06;57.97;101631.88;5569826;32;33633;-56
2022/01/19 13:57:40;;;;;;;22.90;10.35;;;;;;;7.12;52.05;101625.66;5558554;32;33888;-56
2022/01/19 14:01:01;;;;;;;21.25;10.18;;;;;;;6.86;52.34;101624.16;5561600;32;34272;-57
2022/01/19 14:04:09;;;;;;;16.37;9.07;;;;;;;6.72;52.17;101620.84;5568753;32;34356;-56
2022/01/19 14:07:14;;;;;;;18.92;8.43;;;;;;;6.74;52.59;101613.41;5569806;32;34261;-57
2022/01/19 14:10:17;;;;;;;18.73;8.00;;;;;;;6.74;53.11;101608.09;5565380;32;33747;-56
2022/01/19 14:13:28;;;;;;;15.02;8.98;;;;;;;6.83;59.91;101606.75;5569331;32;34401;-57
2022/01/19 14:16:38;;;;;;;19.73;10.05;;;;;;;6.76;55.48;101616.69;5565535;32;34556;-56
2022/01/19 14:19:48;;;;;;;16.33;8.75;;;;;;;6.88;54.35;101603.37;5561725;32;33653;-56
2022/01/19 14:23:09;;;;;;;20.60;8.70;;;;;;;6.75;54.02;101590.25;5568222;32;34016;-57
2022/01/19 14:26:12;;;;;;;16.20;7.95;;;;;;;6.83;55.19;101592.59;5568023;32;33593;-56
2022/01/19 14:29:14;;;;;;;15.95;8.52;;;;;;;6.93;53.89;101594.75;5567073;32;33708;-56
2022/01/19 14:32:16;;;;;;;19.08;8.93;;;;;;;7.07;64.75;101590.84;5565177;32;34279;-56
2022/01/19 14:35:26;;;;;;;27.40;15.23;;;;;;;7.31;66.59;101583.72;5569314;32;34709;-56
2022/01/19 14:38:38;;;;;;;21.17;11.55;;;;;;;7.18;53.61;101581.25;5568402;32;34411;-57
2022/01/19 14:41:43;;;;;;;18.23;8.75;;;;;;;6.99;54.33;101567.19;5568705;32;33627;-56
2022/01/19 14:44:58;;;;;;;19.40;8.50;;;;;;;7.28;65.06;101568.16;5565047;31;33261;-56
2022/01/19 14:48:15;;;;;;;18.42;8.73;;;;;;;7.10;54.78;101569.06;5560296;32;33271;-56
2022/01/19 14:51:18;;;;;;;;;;;;;;;7.05;58.75;101560.91;5557719;32;34489;-56
2022/01/19 14:54:23;;;;;;;17.70;9.32;;;;;;;7.10;62.53;101555.72;5561225;32;33943;-56
2022/01/19 14:57:25;;;;;;;13.80;9.23;;;;;;;6.99;63.12;101548.50;5564857;32;34390;-56
2022/01/19 15:00:29;;;;;;;19.50;8.75;;;;;;;6.94;54.09;101553.69;5567937;32;33377;-57
2022/01/19 15:03:32;;;;;;;17.65;8.43;;;;;;;6.96;58.62;101548.97;5562257;32;34298;-56
2022/01/19 15:06:34;;;;;;;16.55;8.90;;;;;;;7.03;64.41;101553.16;5567804;32;34281;-57
2022/01/19 15:09:36;;;;;;;14.30;8.32;;;;;;;7.12;56.84;101550.97;5567771;32;34495;-56
2022/01/19 15:12:40;;;;;;;16.27;7.97;;;;;;;7.06;55.67;101541.22;5558791;32;34351;-56
2022/01/19 15:15:42;;;;;;;16.62;7.85;;;;;;;6.88;56.74;101541.28;5568167;32;34393;-56
2022/01/19 15:18:44;;;;;;;15.63;7.37;;;;;;;6.88;56.14;101533.28;5568704;32;33761;-57
2022/01/19 15:21:48;;;;;;;14.07;7.65;;;;;;;6.80;54.61;101529.09;5567503;32;33372;-57
2022/01/19 15:24:50;;;;;;;21.42;11.77;;;;;;;6.67;54.52;101518.63;5567083;32;33642;-56
2022/01/19 15:27:54;;;;;;;27.10;14.05;;;;;;;6.65;56.23;101526.00;5565154;32;33668;-56
2022/01/19 15:30:57;;;;;;;24.33;13.50;;;;;;;6.51;57.70;101520.84;5554097;32;33603;-56
2022/01/19 15:33:59;;;;;;;18.27;12.23;;;;;;;6.45;54.82;101515.63;5563537;32;33801;-57
2022/01/19 15:37:01;;;;;;;21.77;13.23;;;;;;;6.43;57.18;101501.72;5568239;32;33792;-56
2022/01/19 15:40:11;;;;;;;24.50;13.25;;;;;;;6.34;55.01;101501.22;5567763;32;33829;-55
2022/01/19 15:43:33;;;;;;;17.62;10.27;;;;;;;6.30;54.76;101502.69;5557944;32;34045;-56
2022/01/19 15:46:36;;;;;;;21.17;11.68;;;;;;;6.18;55.97;101496.50;5564195;32;33692;-56
2022/01/19 15:49:39;;;;;;;22.70;11.55;;;;;;;6.04;55.24;101493.19;5565330;32;34452;-56
2022/01/19 15:52:42;;;;;;;65.18;31.10;;;;;;;5.91;57.10;101496.78;5568762;32;34428;-56
2022/01/19 15:55:46;;;;;;;38.33;23.95;;;;;;;5.77;56.33;101485.47;5568568;32;33856;-56
2022/01/19 15:58:51;;;;;;;;;;;;;;;5.71;56.17;101482.88;5556947;32;34230;-57
2022/01/19 16:01:53;;;;;;;32.10;17.62;;;;;;;5.50;56.28;101484.09;5561565;32;34433;-56
2022/01/19 16:04:56;;;;;;;24.02;14.98;;;;;;;5.37;58.08;101477.06;5567689;32;33681;-56
2022/01/19 16:07:58;;;;;;;26.48;15.40;;;;;;;5.35;57.14;101473.78;5565626;32;34360;-56
2022/01/19 16:11:00;;;;;;;25.45;13.85;;;;;;;5.36;57.19;101467.44;5567888;32;36106;-56
2022/01/19 16:14:02;;;;;;;23.75;14.50;;;;;;;5.24;57.22;101474.50;5568792;32;33636;-56
2022/01/19 16:17:06;;;;;;;28.55;16.02;;;;;;;5.19;57.15;101472.50;5568787;32;34473;-57
2022/01/19 16:20:10;;;;;;;31.25;15.52;;;;;;;5.08;57.17;101473.22;5549722;32;34362;-58
2022/01/19 16:26:35;;;;;;;24.30;14.98;;;;;;;4.90;58.91;101465.97;5569229;32;33592;-56
2022/01/19 16:29:38;;;;;;;25.77;14.13;;;;;;;4.88;65.48;101466.19;5567739;32;34291;-56
2022/01/19 16:32:40;;;;;;;25.52;14.75;;;;;;;4.84;58.63;101454.37;5568151;32;34400;-56
2022/01/19 16:35:44;;;;;;;24.12;14.00;;;;;;;4.64;59.13;101449.19;5568200;32;33654;-57
2022/01/19 16:38:46;;;;;;;25.02;14.10;;;;;;;4.64;58.86;101445.75;5553930;32;34323;-56
2022/01/19 16:41:49;;;;;;;25.67;14.50;;;;;;;4.53;59.18;101449.88;5567837;32;33870;-56
2022/01/19 16:44:53;;;;;;;23.70;14.18;;;;;;;4.54;58.89;101443.56;5567812;32;33678;-56
2022/01/19 16:48:00;;;;;;;30.05;15.98;;;;;;;4.51;59.13;101441.31;5566139;32;33647;-56
